sensor_id;sensor_type;location;lat;lon;timestamp;P1;durP1;ratioP1;P2;durP2;ratioP2
7471;SDS011;3777;48.722;8.110;2024-01-27T00:00:48;11.40;;;8.07;;
7471;SDS011;3777;48.722;8.110;2024-01-27T00:03:17;10.57;;;7.90;;
7471;SDS011;3777;48.722;8.110;2024-01-27T00:05:44;13.30;;;7.37;;
7471;SDS011;3777;48.722;8.110;2024-01-27T00:08:12;14.90;;;7.80;;
7471;SDS011;3777;48.722;8.110;2024-01-27T00:10:39;11.53;;;8.43;;
7471;SDS011;3777;48.722;8.110;2024-01-27T00:13:06;11.97;;;7.40;;
7471;SDS011;3777;48.722;8.110;2024-01-27T00:15:33;13.20;;;8.50;;
7471;SDS011;3777;48.722;8.110;2024-01-27T00:18:00;11.97;;;7.97;;
7471;SDS011;3777;48.722;8.110;2024-01-27T00:20:27;11.07;;;7.40;;
7471;SDS011;3777;48.722;8.110;2024-01-27T00:22:54;9.47;;;7.17;;
7471;SDS011;3777;48.722;8.110;2024-01-27T00:25:22;12.53;;;6.90;;
7471;SDS011;3777;48.722;8.110;2024-01-27T00:27:49;10.33;;;6.20;;
7471;SDS011;3777;48.722;8.110;2024-01-27T00:30:16;12.87;;;6.77;;
7471;SDS011;3777;48.722;8.110;2024-01-27T00:32:43;9.33;;;6.77;;
7471;SDS011;3777;48.722;8.110;2024-01-27T00:35:10;12.70;;;7.67;;
7471;SDS011;3777;48.722;8.110;2024-01-27T00:37:39;11.87;;;7.90;;
7471;SDS011;3777;48.722;8.110;2024-01-27T00:40:07;10.30;;;6.83;;
7471;SDS011;3777;48.722;8.110;2024-01-27T00:42:37;11.60;;;6.70;;
7471;SDS011;3777;48.722;8.110;2024-01-27T00:45:04;9.47;;;6.87;;
7471;SDS011;3777;48.722;8.110;2024-01-27T00:47:32;10.13;;;6.63;;
7471;SDS011;3777;48.722;8.110;2024-01-27T00:49:59;12.13;;;7.30;;
7471;SDS011;3777;48.722;8.110;2024-01-27T00:52:26;11.00;;;6.97;;
7471;SDS011;3777;48.722;8.110;2024-01-27T00:54:53;10.73;;;6.63;;
7471;SDS011;3777;48.722;8.110;2024-01-27T00:57:20;10.13;;;7.00;;
7471;SDS011;3777;48.722;8.110;2024-01-27T00:59:48;11.90;;;7.33;;
7471;SDS011;3777;48.722;8.110;2024-01-27T01:02:15;11.23;;;7.60;;
7471;SDS011;3777;48.722;8.110;2024-01-27T01:04:42;9.30;;;6.70;;
7471;SDS011;3777;48.722;8.110;2024-01-27T01:07:10;9.43;;;6.90;;
7471;SDS011;3777;48.722;8.110;2024-01-27T01:09:37;10.40;;;7.30;;
7471;SDS011;3777;48.722;8.110;2024-01-27T01:12:04;10.67;;;7.07;;
7471;SDS011;3777;48.722;8.110;2024-01-27T01:14:31;9.50;;;6.47;;
7471;SDS011;3777;48.722;8.110;2024-01-27T01:17:00;11.53;;;7.90;;
7471;SDS011;3777;48.722;8.110;2024-01-27T01:19:27;9.40;;;6.20;;
7471;SDS011;3777;48.722;8.110;2024-01-27T01:21:54;10.17;;;6.30;;
7471;SDS011;3777;48.722;8.110;2024-01-27T01:24:21;10.17;;;6.50;;
7471;SDS011;3777;48.722;8.110;2024-01-27T01:26:48;11.37;;;6.73;;
7471;SDS011;3777;48.722;8.110;2024-01-27T01:29:16;12.20;;;6.40;;
7471;SDS011;3777;48.722;8.110;2024-01-27T01:31:43;9.57;;;6.20;;
7471;SDS011;3777;48.722;8.110;2024-01-27T01:34:11;11.70;;;6.23;;
7471;SDS011;3777;48.722;8.110;2024-01-27T01:36:38;8.90;;;6.07;;
7471;SDS011;3777;48.722;8.110;2024-01-27T01:39:06;10.03;;;6.30;;
7471;SDS011;3777;48.722;8.110;2024-01-27T01:41:33;14.50;;;6.87;;
7471;SDS011;3777;48.722;8.110;2024-01-27T01:44:00;7.23;;;6.03;;
7471;SDS011;3777;48.722;8.110;2024-01-27T01:46:27;8.23;;;6.27;;
7471;SDS011;3777;48.722;8.110;2024-01-27T01:48:54;6.80;;;5.43;;
7471;SDS011;3777;48.722;8.110;2024-01-27T01:51:23;9.83;;;6.60;;
7471;SDS011;3777;48.722;8.110;2024-01-27T01:53:50;9.20;;;5.80;;
7471;SDS011;3777;48.722;8.110;2024-01-27T01:56:18;8.93;;;5.70;;
7471;SDS011;3777;48.722;8.110;2024-01-27T01:58:45;8.87;;;6.20;;
7471;SDS011;3777;48.722;8.110;2024-01-27T02:01:12;12.07;;;6.60;;
7471;SDS011;3777;48.722;8.110;2024-01-27T02:03:40;6.93;;;5.50;;
7471;SDS011;3777;48.722;8.110;2024-01-27T02:06:17;7.70;;;5.63;;
7471;SDS011;3777;48.722;8.110;2024-01-27T02:08:45;9.27;;;6.43;;
7471;SDS011;3777;48.722;8.110;2024-01-27T02:11:12;9.20;;;5.80;;
7471;SDS011;3777;48.722;8.110;2024-01-27T02:13:39;8.50;;;5.70;;
7471;SDS011;3777;48.722;8.110;2024-01-27T02:16:06;9.63;;;5.53;;
7471;SDS011;3777;48.722;8.110;2024-01-27T02:18:33;9.30;;;5.60;;
7471;SDS011;3777;48.722;8.110;2024-01-27T02:21:00;7.70;;;5.40;;
7471;SDS011;3777;48.722;8.110;2024-01-27T02:23:27;9.90;;;6.27;;
7471;SDS011;3777;48.722;8.110;2024-01-27T02:25:56;9.80;;;6.73;;
7471;SDS011;3777;48.722;8.110;2024-01-27T02:28:23;9.40;;;6.00;;
7471;SDS011;3777;48.722;8.110;2024-01-27T02:30:50;9.03;;;6.23;;
7471;SDS011;3777;48.722;8.110;2024-01-27T02:33:17;8.77;;;5.97;;
7471;SDS011;3777;48.722;8.110;2024-01-27T02:35:44;7.70;;;5.70;;
7471;SDS011;3777;48.722;8.110;2024-01-27T02:38:13;9.40;;;5.80;;
7471;SDS011;3777;48.722;8.110;2024-01-27T02:40:40;9.83;;;5.80;;
7471;SDS011;3777;48.722;8.110;2024-01-27T02:43:08;10.27;;;5.60;;
7471;SDS011;3777;48.722;8.110;2024-01-27T02:45:35;7.87;;;5.53;;
7471;SDS011;3777;48.722;8.110;2024-01-27T02:48:02;7.93;;;5.63;;
7471;SDS011;3777;48.722;8.110;2024-01-27T02:50:30;10.63;;;5.60;;
7471;SDS011;3777;48.722;8.110;2024-01-27T02:52:56;6.97;;;5.50;;
7471;SDS011;3777;48.722;8.110;2024-01-27T02:55:23;8.00;;;5.63;;
7471;SDS011;3777;48.722;8.110;2024-01-27T02:57:50;8.00;;;5.47;;
7471;SDS011;3777;48.722;8.110;2024-01-27T03:00:19;8.40;;;6.33;;
7471;SDS011;3777;48.722;8.110;2024-01-27T03:02:45;8.03;;;6.07;;
7471;SDS011;3777;48.722;8.110;2024-01-27T03:05:12;9.40;;;5.47;;
7471;SDS011;3777;48.722;8.110;2024-01-27T03:07:39;9.13;;;6.30;;
7471;SDS011;3777;48.722;8.110;2024-01-27T03:10:06;7.70;;;5.97;;
7471;SDS011;3777;48.722;8.110;2024-01-27T03:12:34;8.37;;;5.50;;
7471;SDS011;3777;48.722;8.110;2024-01-27T03:15:01;8.80;;;6.17;;
7471;SDS011;3777;48.722;8.110;2024-01-27T03:17:29;6.40;;;5.60;;
7471;SDS011;3777;48.722;8.110;2024-01-27T03:19:56;9.90;;;6.27;;
7471;SDS011;3777;48.722;8.110;2024-01-27T03:22:23;8.00;;;5.87;;
7471;SDS011;3777;48.722;8.110;2024-01-27T03:24:50;6.67;;;5.40;;
7471;SDS011;3777;48.722;8.110;2024-01-27T03:27:20;7.67;;;5.70;;
7471;SDS011;3777;48.722;8.110;2024-01-27T03:29:47;8.50;;;6.10;;
7471;SDS011;3777;48.722;8.110;2024-01-27T03:32:14;8.73;;;6.03;;
7471;SDS011;3777;48.722;8.110;2024-01-27T03:34:44;7.93;;;6.03;;
7471;SDS011;3777;48.722;8.110;2024-01-27T03:37:11;6.97;;;5.33;;
7471;SDS011;3777;48.722;8.110;2024-01-27T03:39:40;8.97;;;6.20;;
7471;SDS011;3777;48.722;8.110;2024-01-27T03:42:07;8.27;;;5.93;;
7471;SDS011;3777;48.722;8.110;2024-01-27T03:44:34;7.57;;;5.90;;
7471;SDS011;3777;48.722;8.110;2024-01-27T03:47:01;7.87;;;5.37;;
7471;SDS011;3777;48.722;8.110;2024-01-27T03:49:29;8.90;;;6.20;;
7471;SDS011;3777;48.722;8.110;2024-01-27T03:51:57;8.83;;;5.90;;
7471;SDS011;3777;48.722;8.110;2024-01-27T03:54:24;9.13;;;5.77;;
7471;SDS011;3777;48.722;8.110;2024-01-27T03:56:51;7.07;;;6.10;;
7471;SDS011;3777;48.722;8.110;2024-01-27T03:59:18;7.33;;;5.70;;
7471;SDS011;3777;48.722;8.110;2024-01-27T04:01:45;9.17;;;6.40;;
7471;SDS011;3777;48.722;8.110;2024-01-27T04:04:12;8.53;;;5.93;;
7471;SDS011;3777;48.722;8.110;2024-01-27T04:06:39;9.03;;;5.87;;
7471;SDS011;3777;48.722;8.110;2024-01-27T04:09:08;6.80;;;5.10;;
7471;SDS011;3777;48.722;8.110;2024-01-27T04:11:35;8.37;;;5.73;;
7471;SDS011;3777;48.722;8.110;2024-01-27T04:14:04;6.23;;;5.50;;
7471;SDS011;3777;48.722;8.110;2024-01-27T04:16:31;9.03;;;5.93;;
7471;SDS011;3777;48.722;8.110;2024-01-27T04:18:58;7.10;;;5.63;;
7471;SDS011;3777;48.722;8.110;2024-01-27T04:21:25;6.47;;;5.50;;
7471;SDS011;3777;48.722;8.110;2024-01-27T04:23:52;9.77;;;5.37;;
7471;SDS011;3777;48.722;8.110;2024-01-27T04:26:20;10.20;;;5.90;;
7471;SDS011;3777;48.722;8.110;2024-01-27T04:28:47;7.67;;;5.70;;
7471;SDS011;3777;48.722;8.110;2024-01-27T04:31:14;10.80;;;5.50;;
7471;SDS011;3777;48.722;8.110;2024-01-27T04:33:41;6.27;;;5.10;;
7471;SDS011;3777;48.722;8.110;2024-01-27T04:36:09;8.13;;;5.13;;
7471;SDS011;3777;48.722;8.110;2024-01-27T04:38:35;8.30;;;5.33;;
7471;SDS011;3777;48.722;8.110;2024-01-27T04:41:02;6.65;;;5.53;;
7471;SDS011;3777;48.722;8.110;2024-01-27T04:43:31;7.00;;;5.70;;
7471;SDS011;3777;48.722;8.110;2024-01-27T04:45:58;6.60;;;4.87;;
7471;SDS011;3777;48.722;8.110;2024-01-27T04:48:25;5.87;;;4.67;;
7471;SDS011;3777;48.722;8.110;2024-01-27T04:50:52;6.90;;;5.50;;
7471;SDS011;3777;48.722;8.110;2024-01-27T04:53:19;5.63;;;4.90;;
7471;SDS011;3777;48.722;8.110;2024-01-27T04:55:45;6.90;;;5.30;;
7471;SDS011;3777;48.722;8.110;2024-01-27T04:58:12;6.53;;;4.80;;
7471;SDS011;3777;48.722;8.110;2024-01-27T05:00:41;6.67;;;5.00;;
7471;SDS011;3777;48.722;8.110;2024-01-27T05:03:08;6.13;;;5.07;;
7471;SDS011;3777;48.722;8.110;2024-01-27T05:05:40;8.37;;;5.07;;
7471;SDS011;3777;48.722;8.110;2024-01-27T05:08:07;8.80;;;5.20;;
7471;SDS011;3777;48.722;8.110;2024-01-27T05:10:34;6.10;;;5.33;;
7471;SDS011;3777;48.722;8.110;2024-01-27T05:13:02;6.93;;;5.03;;
7471;SDS011;3777;48.722;8.110;2024-01-27T05:15:29;8.00;;;5.77;;
7471;SDS011;3777;48.722;8.110;2024-01-27T05:17:57;7.33;;;5.67;;
7471;SDS011;3777;48.722;8.110;2024-01-27T05:20:24;7.07;;;5.90;;
7471;SDS011;3777;48.722;8.110;2024-01-27T05:22:51;8.33;;;6.23;;
7471;SDS011;3777;48.722;8.110;2024-01-27T05:25:18;7.17;;;5.50;;
7471;SDS011;3777;48.722;8.110;2024-01-27T05:27:45;6.53;;;5.53;;
7471;SDS011;3777;48.722;8.110;2024-01-27T05:30:12;7.27;;;5.57;;
7471;SDS011;3777;48.722;8.110;2024-01-27T05:32:39;9.80;;;5.80;;
7471;SDS011;3777;48.722;8.110;2024-01-27T05:35:08;8.83;;;6.33;;
7471;SDS011;3777;48.722;8.110;2024-01-27T05:37:35;7.13;;;5.80;;
7471;SDS011;3777;48.722;8.110;2024-01-27T05:40:05;8.57;;;5.67;;
7471;SDS011;3777;48.722;8.110;2024-01-27T05:42:32;6.40;;;5.73;;
7471;SDS011;3777;48.722;8.110;2024-01-27T05:44:59;7.07;;;5.80;;
7471;SDS011;3777;48.722;8.110;2024-01-27T05:47:26;7.27;;;5.23;;
7471;SDS011;3777;48.722;8.110;2024-01-27T05:49:53;6.70;;;5.83;;
7471;SDS011;3777;48.722;8.110;2024-01-27T05:52:22;7.33;;;5.83;;
7471;SDS011;3777;48.722;8.110;2024-01-27T05:54:50;7.53;;;5.70;;
7471;SDS011;3777;48.722;8.110;2024-01-27T05:57:17;5.47;;;4.93;;
7471;SDS011;3777;48.722;8.110;2024-01-27T05:59:44;8.00;;;5.30;;
7471;SDS011;3777;48.722;8.110;2024-01-27T06:02:11;7.87;;;4.90;;
7471;SDS011;3777;48.722;8.110;2024-01-27T06:04:38;6.97;;;5.07;;
7471;SDS011;3777;48.722;8.110;2024-01-27T06:07:05;6.43;;;5.20;;
7471;SDS011;3777;48.722;8.110;2024-01-27T06:09:34;5.53;;;5.00;;
7471;SDS011;3777;48.722;8.110;2024-01-27T06:12:03;5.10;;;4.60;;
7471;SDS011;3777;48.722;8.110;2024-01-27T06:14:31;6.00;;;5.23;;
7471;SDS011;3777;48.722;8.110;2024-01-27T06:16:58;6.60;;;5.30;;
7471;SDS011;3777;48.722;8.110;2024-01-27T06:19:25;7.43;;;5.23;;
7471;SDS011;3777;48.722;8.110;2024-01-27T06:21:52;5.43;;;4.93;;
7471;SDS011;3777;48.722;8.110;2024-01-27T06:24:19;7.50;;;5.27;;
7471;SDS011;3777;48.722;8.110;2024-01-27T06:26:47;5.93;;;5.27;;
7471;SDS011;3777;48.722;8.110;2024-01-27T06:29:15;7.57;;;5.10;;
7471;SDS011;3777;48.722;8.110;2024-01-27T06:31:43;6.77;;;4.90;;
7471;SDS011;3777;48.722;8.110;2024-01-27T06:34:10;7.13;;;5.53;;
7471;SDS011;3777;48.722;8.110;2024-01-27T06:36:37;7.00;;;5.30;;
7471;SDS011;3777;48.722;8.110;2024-01-27T06:39:04;6.60;;;5.30;;
7471;SDS011;3777;48.722;8.110;2024-01-27T06:41:32;7.33;;;5.57;;
7471;SDS011;3777;48.722;8.110;2024-01-27T06:44:01;9.50;;;6.80;;
7471;SDS011;3777;48.722;8.110;2024-01-27T06:46:28;6.97;;;5.60;;
7471;SDS011;3777;48.722;8.110;2024-01-27T06:48:55;8.37;;;6.73;;
7471;SDS011;3777;48.722;8.110;2024-01-27T06:51:22;8.13;;;6.00;;
7471;SDS011;3777;48.722;8.110;2024-01-27T06:53:49;10.07;;;8.20;;
7471;SDS011;3777;48.722;8.110;2024-01-27T06:56:16;10.60;;;9.13;;
7471;SDS011;3777;48.722;8.110;2024-01-27T06:58:43;11.27;;;8.13;;
7471;SDS011;3777;48.722;8.110;2024-01-27T07:01:11;12.90;;;9.00;;
7471;SDS011;3777;48.722;8.110;2024-01-27T07:03:38;15.17;;;8.70;;
7471;SDS011;3777;48.722;8.110;2024-01-27T07:06:05;11.30;;;9.70;;
7471;SDS011;3777;48.722;8.110;2024-01-27T07:08:32;13.77;;;9.00;;
7471;SDS011;3777;48.722;8.110;2024-01-27T07:10:59;11.43;;;9.30;;
7471;SDS011;3777;48.722;8.110;2024-01-27T07:13:27;11.33;;;8.63;;
7471;SDS011;3777;48.722;8.110;2024-01-27T07:15:55;13.87;;;8.70;;
7471;SDS011;3777;48.722;8.110;2024-01-27T07:18:24;13.13;;;9.13;;
7471;SDS011;3777;48.722;8.110;2024-01-27T07:20:51;12.33;;;7.50;;
7471;SDS011;3777;48.722;8.110;2024-01-27T07:23:19;8.33;;;6.73;;
7471;SDS011;3777;48.722;8.110;2024-01-27T07:25:46;10.10;;;6.33;;
7471;SDS011;3777;48.722;8.110;2024-01-27T07:28:13;8.97;;;6.63;;
7471;SDS011;3777;48.722;8.110;2024-01-27T07:30:41;10.67;;;7.50;;
7471;SDS011;3777;48.722;8.110;2024-01-27T07:33:08;11.40;;;7.33;;
7471;SDS011;3777;48.722;8.110;2024-01-27T07:35:36;9.67;;;7.77;;
7471;SDS011;3777;48.722;8.110;2024-01-27T07:38:03;8.67;;;6.27;;
7471;SDS011;3777;48.722;8.110;2024-01-27T07:40:30;8.57;;;7.27;;
7471;SDS011;3777;48.722;8.110;2024-01-27T07:42:57;9.87;;;8.17;;
7471;SDS011;3777;48.722;8.110;2024-01-27T07:45:24;9.10;;;7.30;;
7471;SDS011;3777;48.722;8.110;2024-01-27T07:47:51;7.43;;;6.33;;
7471;SDS011;3777;48.722;8.110;2024-01-27T07:50:18;10.00;;;8.70;;
7471;SDS011;3777;48.722;8.110;2024-01-27T07:52:46;7.43;;;6.20;;
7471;SDS011;3777;48.722;8.110;2024-01-27T07:55:13;8.00;;;6.77;;
7471;SDS011;3777;48.722;8.110;2024-01-27T07:57:42;8.50;;;7.33;;
7471;SDS011;3777;48.722;8.110;2024-01-27T08:00:09;8.10;;;6.13;;
7471;SDS011;3777;48.722;8.110;2024-01-27T08:02:37;8.20;;;6.10;;
7471;SDS011;3777;48.722;8.110;2024-01-27T08:05:04;7.90;;;5.90;;
7471;SDS011;3777;48.722;8.110;2024-01-27T08:07:32;10.07;;;6.43;;
7471;SDS011;3777;48.722;8.110;2024-01-27T08:10:00;9.00;;;6.30;;
7471;SDS011;3777;48.722;8.110;2024-01-27T08:12:29;7.47;;;6.20;;
7471;SDS011;3777;48.722;8.110;2024-01-27T08:14:56;8.57;;;5.97;;
7471;SDS011;3777;48.722;8.110;2024-01-27T08:17:23;9.80;;;6.93;;
7471;SDS011;3777;48.722;8.110;2024-01-27T08:19:50;8.13;;;6.80;;
7471;SDS011;3777;48.722;8.110;2024-01-27T08:22:17;10.53;;;6.37;;
7471;SDS011;3777;48.722;8.110;2024-01-27T08:24:44;7.03;;;5.63;;
7471;SDS011;3777;48.722;8.110;2024-01-27T08:27:12;6.97;;;5.43;;
7471;SDS011;3777;48.722;8.110;2024-01-27T08:29:40;8.90;;;6.30;;
7471;SDS011;3777;48.722;8.110;2024-01-27T08:32:07;6.87;;;5.60;;
7471;SDS011;3777;48.722;8.110;2024-01-27T08:34:34;8.13;;;6.77;;
7471;SDS011;3777;48.722;8.110;2024-01-27T08:37:01;9.90;;;6.87;;
7471;SDS011;3777;48.722;8.110;2024-01-27T08:39:28;8.20;;;6.80;;
7471;SDS011;3777;48.722;8.110;2024-01-27T08:41:55;7.63;;;5.90;;
7471;SDS011;3777;48.722;8.110;2024-01-27T08:44:24;10.00;;;5.70;;
7471;SDS011;3777;48.722;8.110;2024-01-27T08:46:51;7.40;;;5.60;;
7471;SDS011;3777;48.722;8.110;2024-01-27T08:49:18;10.73;;;5.97;;
7471;SDS011;3777;48.722;8.110;2024-01-27T08:51:45;8.17;;;6.00;;
7471;SDS011;3777;48.722;8.110;2024-01-27T08:54:12;8.10;;;5.93;;
7471;SDS011;3777;48.722;8.110;2024-01-27T08:56:39;9.53;;;7.10;;
7471;SDS011;3777;48.722;8.110;2024-01-27T08:59:06;9.90;;;6.67;;
7471;SDS011;3777;48.722;8.110;2024-01-27T09:01:35;10.40;;;6.80;;
7471;SDS011;3777;48.722;8.110;2024-01-27T09:04:02;10.53;;;7.23;;
7471;SDS011;3777;48.722;8.110;2024-01-27T09:06:29;10.73;;;7.20;;
7471;SDS011;3777;48.722;8.110;2024-01-27T09:08:56;10.67;;;7.10;;
7471;SDS011;3777;48.722;8.110;2024-01-27T09:11:23;11.23;;;7.30;;
7471;SDS011;3777;48.722;8.110;2024-01-27T09:13:52;10.93;;;6.83;;
7471;SDS011;3777;48.722;8.110;2024-01-27T09:16:19;9.87;;;7.13;;
7471;SDS011;3777;48.722;8.110;2024-01-27T09:18:48;13.13;;;8.83;;
7471;SDS011;3777;48.722;8.110;2024-01-27T09:21:16;12.67;;;7.77;;
7471;SDS011;3777;48.722;8.110;2024-01-27T09:23:45;10.50;;;6.80;;
7471;SDS011;3777;48.722;8.110;2024-01-27T09:26:13;11.80;;;7.60;;
7471;SDS011;3777;48.722;8.110;2024-01-27T09:28:43;6.20;;;5.50;;
7471;SDS011;3777;48.722;8.110;2024-01-27T09:31:18;9.63;;;6.27;;
7471;SDS011;3777;48.722;8.110;2024-01-27T09:33:48;8.23;;;5.93;;
7471;SDS011;3777;48.722;8.110;2024-01-27T09:36:17;7.83;;;5.70;;
7471;SDS011;3777;48.722;8.110;2024-01-27T09:38:45;9.73;;;5.70;;
7471;SDS011;3777;48.722;8.110;2024-01-27T09:41:12;10.20;;;6.83;;
7471;SDS011;3777;48.722;8.110;2024-01-27T09:43:41;8.00;;;5.37;;
7471;SDS011;3777;48.722;8.110;2024-01-27T09:46:10;8.00;;;5.60;;
7471;SDS011;3777;48.722;8.110;2024-01-27T09:48:37;9.17;;;5.53;;
7471;SDS011;3777;48.722;8.110;2024-01-27T09:51:07;6.87;;;5.30;;
7471;SDS011;3777;48.722;8.110;2024-01-27T09:53:35;8.70;;;5.43;;
7471;SDS011;3777;48.722;8.110;2024-01-27T09:56:03;6.67;;;5.50;;
7471;SDS011;3777;48.722;8.110;2024-01-27T09:58:30;8.23;;;5.60;;
7471;SDS011;3777;48.722;8.110;2024-01-27T10:00:58;8.13;;;5.03;;
7471;SDS011;3777;48.722;8.110;2024-01-27T10:03:27;8.80;;;5.47;;
7471;SDS011;3777;48.722;8.110;2024-01-27T10:05:55;8.50;;;5.93;;
7471;SDS011;3777;48.722;8.110;2024-01-27T10:08:24;9.83;;;5.70;;
7471;SDS011;3777;48.722;8.110;2024-01-27T10:10:53;8.63;;;6.03;;
7471;SDS011;3777;48.722;8.110;2024-01-27T10:13:21;6.87;;;6.00;;
7471;SDS011;3777;48.722;8.110;2024-01-27T10:15:59;9.90;;;5.37;;
7471;SDS011;3777;48.722;8.110;2024-01-27T10:18:27;7.97;;;4.83;;
7471;SDS011;3777;48.722;8.110;2024-01-27T10:20:54;8.07;;;5.30;;
7471;SDS011;3777;48.722;8.110;2024-01-27T10:23:21;7.73;;;4.83;;
7471;SDS011;3777;48.722;8.110;2024-01-27T10:25:50;6.13;;;4.73;;
7471;SDS011;3777;48.722;8.110;2024-01-27T10:28:18;7.90;;;5.10;;
7471;SDS011;3777;48.722;8.110;2024-01-27T10:30:45;8.83;;;5.00;;
7471;SDS011;3777;48.722;8.110;2024-01-27T10:33:14;6.70;;;4.67;;
7471;SDS011;3777;48.722;8.110;2024-01-27T10:35:41;7.10;;;5.13;;
7471;SDS011;3777;48.722;8.110;2024-01-27T10:38:09;5.70;;;4.10;;
7471;SDS011;3777;48.722;8.110;2024-01-27T10:40:36;8.00;;;3.97;;
7471;SDS011;3777;48.722;8.110;2024-01-27T10:43:05;5.80;;;3.90;;
7471;SDS011;3777;48.722;8.110;2024-01-27T10:45:36;6.77;;;4.00;;
7471;SDS011;3777;48.722;8.110;2024-01-27T10:48:04;6.53;;;3.90;;
7471;SDS011;3777;48.722;8.110;2024-01-27T10:50:34;7.57;;;3.97;;
7471;SDS011;3777;48.722;8.110;2024-01-27T10:53:03;6.77;;;4.40;;
7471;SDS011;3777;48.722;8.110;2024-01-27T10:55:31;5.63;;;3.97;;
7471;SDS011;3777;48.722;8.110;2024-01-27T10:58:00;4.00;;;3.60;;
7471;SDS011;3777;48.722;8.110;2024-01-27T11:00:30;5.37;;;4.03;;
7471;SDS011;3777;48.722;8.110;2024-01-27T11:02:58;7.53;;;4.20;;
7471;SDS011;3777;48.722;8.110;2024-01-27T11:05:29;6.67;;;4.20;;
7471;SDS011;3777;48.722;8.110;2024-01-27T11:07:57;6.70;;;4.10;;
7471;SDS011;3777;48.722;8.110;2024-01-27T11:10:25;6.33;;;4.47;;
7471;SDS011;3777;48.722;8.110;2024-01-27T11:12:56;7.20;;;4.47;;
7471;SDS011;3777;48.722;8.110;2024-01-27T11:15:23;8.23;;;4.60;;
7471;SDS011;3777;48.722;8.110;2024-01-27T11:17:51;7.33;;;4.33;;
7471;SDS011;3777;48.722;8.110;2024-01-27T11:20:23;7.33;;;5.70;;
7471;SDS011;3777;48.722;8.110;2024-01-27T11:22:50;7.97;;;5.60;;
7471;SDS011;3777;48.722;8.110;2024-01-27T11:25:19;6.33;;;5.10;;
7471;SDS011;3777;48.722;8.110;2024-01-27T11:27:47;9.40;;;5.17;;
7471;SDS011;3777;48.722;8.110;2024-01-27T11:30:26;7.87;;;5.43;;
7471;SDS011;3777;48.722;8.110;2024-01-27T11:32:55;9.97;;;6.73;;
7471;SDS011;3777;48.722;8.110;2024-01-27T11:35:23;11.00;;;7.10;;
7471;SDS011;3777;48.722;8.110;2024-01-27T11:37:50;10.43;;;6.27;;
7471;SDS011;3777;48.722;8.110;2024-01-27T11:40:20;9.97;;;6.67;;
7471;SDS011;3777;48.722;8.110;2024-01-27T11:42:53;13.07;;;7.60;;
7471;SDS011;3777;48.722;8.110;2024-01-27T11:45:21;12.40;;;7.47;;
7471;SDS011;3777;48.722;8.110;2024-01-27T11:47:49;11.00;;;7.67;;
7471;SDS011;3777;48.722;8.110;2024-01-27T11:50:18;11.23;;;6.87;;
7471;SDS011;3777;48.722;8.110;2024-01-27T11:52:45;12.30;;;7.53;;
7471;SDS011;3777;48.722;8.110;2024-01-27T11:55:13;11.87;;;8.10;;
7471;SDS011;3777;48.722;8.110;2024-01-27T11:57:41;12.07;;;7.43;;
7471;SDS011;3777;48.722;8.110;2024-01-27T12:00:08;10.83;;;7.50;;
7471;SDS011;3777;48.722;8.110;2024-01-27T12:02:36;11.47;;;7.03;;
7471;SDS011;3777;48.722;8.110;2024-01-27T12:05:03;10.67;;;6.90;;
7471;SDS011;3777;48.722;8.110;2024-01-27T12:07:32;10.13;;;7.07;;
7471;SDS011;3777;48.722;8.110;2024-01-27T12:10:00;10.43;;;6.90;;
7471;SDS011;3777;48.722;8.110;2024-01-27T12:12:27;10.80;;;6.43;;
7471;SDS011;3777;48.722;8.110;2024-01-27T12:14:54;12.57;;;6.60;;
7471;SDS011;3777;48.722;8.110;2024-01-27T12:17:22;10.20;;;6.67;;
7471;SDS011;3777;48.722;8.110;2024-01-27T12:19:49;10.87;;;6.80;;
7471;SDS011;3777;48.722;8.110;2024-01-27T12:22:21;9.97;;;6.53;;
7471;SDS011;3777;48.722;8.110;2024-01-27T12:24:52;8.73;;;6.47;;
7471;SDS011;3777;48.722;8.110;2024-01-27T12:27:20;10.38;;;7.15;;
7471;SDS011;3777;48.722;8.110;2024-01-27T12:29:47;9.18;;;7.05;;
7471;SDS011;3777;48.722;8.110;2024-01-27T12:32:15;9.43;;;6.47;;
7471;SDS011;3777;48.722;8.110;2024-01-27T12:34:42;8.53;;;5.63;;
7471;SDS011;3777;48.722;8.110;2024-01-27T12:37:10;9.07;;;5.50;;
7471;SDS011;3777;48.722;8.110;2024-01-27T12:39:40;11.23;;;5.87;;
7471;SDS011;3777;48.722;8.110;2024-01-27T12:42:10;10.63;;;5.70;;
7471;SDS011;3777;48.722;8.110;2024-01-27T12:44:37;9.23;;;5.23;;
7471;SDS011;3777;48.722;8.110;2024-01-27T12:47:05;9.50;;;5.33;;
7471;SDS011;3777;48.722;8.110;2024-01-27T12:49:32;6.60;;;4.97;;
7471;SDS011;3777;48.722;8.110;2024-01-27T12:51:59;9.03;;;6.03;;
7471;SDS011;3777;48.722;8.110;2024-01-27T12:54:26;8.77;;;5.47;;
7471;SDS011;3777;48.722;8.110;2024-01-27T12:56:53;11.07;;;6.47;;
7471;SDS011;3777;48.722;8.110;2024-01-27T12:59:22;9.73;;;6.13;;
7471;SDS011;3777;48.722;8.110;2024-01-27T13:01:49;9.27;;;6.17;;
7471;SDS011;3777;48.722;8.110;2024-01-27T13:04:16;10.87;;;6.13;;
7471;SDS011;3777;48.722;8.110;2024-01-27T13:06:43;10.37;;;6.07;;
7471;SDS011;3777;48.722;8.110;2024-01-27T13:09:10;14.03;;;6.90;;
7471;SDS011;3777;48.722;8.110;2024-01-27T13:11:37;10.37;;;5.90;;
7471;SDS011;3777;48.722;8.110;2024-01-27T13:14:04;9.50;;;5.97;;
7471;SDS011;3777;48.722;8.110;2024-01-27T13:16:35;10.87;;;6.27;;
7471;SDS011;3777;48.722;8.110;2024-01-27T13:19:02;12.53;;;6.33;;
7471;SDS011;3777;48.722;8.110;2024-01-27T13:21:30;9.50;;;6.77;;
7471;SDS011;3777;48.722;8.110;2024-01-27T13:23:57;10.37;;;6.53;;
7471;SDS011;3777;48.722;8.110;2024-01-27T13:26:24;12.47;;;6.37;;
7471;SDS011;3777;48.722;8.110;2024-01-27T13:28:51;13.10;;;6.63;;
7471;SDS011;3777;48.722;8.110;2024-01-27T13:31:18;9.20;;;6.50;;
7471;SDS011;3777;48.722;8.110;2024-01-27T13:33:46;10.60;;;6.33;;
7471;SDS011;3777;48.722;8.110;2024-01-27T13:36:13;13.27;;;6.50;;
7471;SDS011;3777;48.722;8.110;2024-01-27T13:38:40;12.60;;;6.30;;
7471;SDS011;3777;48.722;8.110;2024-01-27T13:41:06;9.37;;;5.47;;
7471;SDS011;3777;48.722;8.110;2024-01-27T13:43:33;9.10;;;5.77;;
7471;SDS011;3777;48.722;8.110;2024-01-27T13:46:00;11.40;;;5.40;;
7471;SDS011;3777;48.722;8.110;2024-01-27T13:48:27;11.63;;;6.00;;
7471;SDS011;3777;48.722;8.110;2024-01-27T13:50:55;9.83;;;5.77;;
7471;SDS011;3777;48.722;8.110;2024-01-27T13:53:22;7.73;;;4.83;;
7471;SDS011;3777;48.722;8.110;2024-01-27T13:55:49;8.37;;;4.67;;
7471;SDS011;3777;48.722;8.110;2024-01-27T13:58:16;9.53;;;4.50;;
7471;SDS011;3777;48.722;8.110;2024-01-27T14:00:44;8.90;;;4.90;;
7471;SDS011;3777;48.722;8.110;2024-01-27T14:03:11;7.93;;;4.40;;
7471;SDS011;3777;48.722;8.110;2024-01-27T14:05:38;9.60;;;4.23;;
7471;SDS011;3777;48.722;8.110;2024-01-27T14:08:08;8.30;;;3.97;;
7471;SDS011;3777;48.722;8.110;2024-01-27T14:10:35;5.70;;;4.10;;
7471;SDS011;3777;48.722;8.110;2024-01-27T14:13:02;6.90;;;4.07;;
7471;SDS011;3777;48.722;8.110;2024-01-27T14:15:34;6.90;;;3.93;;
7471;SDS011;3777;48.722;8.110;2024-01-27T14:18:01;10.23;;;4.00;;
7471;SDS011;3777;48.722;8.110;2024-01-27T14:20:29;7.33;;;4.07;;
7471;SDS011;3777;48.722;8.110;2024-01-27T14:22:57;8.17;;;3.77;;
7471;SDS011;3777;48.722;8.110;2024-01-27T14:25:26;6.13;;;3.50;;
7471;SDS011;3777;48.722;8.110;2024-01-27T14:27:53;5.70;;;3.63;;
7471;SDS011;3777;48.722;8.110;2024-01-27T14:30:20;8.97;;;4.17;;
7471;SDS011;3777;48.722;8.110;2024-01-27T14:32:48;6.93;;;4.27;;
7471;SDS011;3777;48.722;8.110;2024-01-27T14:35:15;7.20;;;3.73;;
7471;SDS011;3777;48.722;8.110;2024-01-27T14:37:42;7.20;;;3.23;;
7471;SDS011;3777;48.722;8.110;2024-01-27T14:40:09;7.53;;;3.50;;
7471;SDS011;3777;48.722;8.110;2024-01-27T14:42:40;8.63;;;3.47;;
7471;SDS011;3777;48.722;8.110;2024-01-27T14:45:07;8.93;;;3.40;;
7471;SDS011;3777;48.722;8.110;2024-01-27T14:47:35;5.73;;;3.50;;
7471;SDS011;3777;48.722;8.110;2024-01-27T14:50:02;7.90;;;3.30;;
7471;SDS011;3777;48.722;8.110;2024-01-27T14:52:30;12.57;;;6.70;;
7471;SDS011;3777;48.722;8.110;2024-01-27T14:54:58;29.50;;;13.07;;
7471;SDS011;3777;48.722;8.110;2024-01-27T14:57:25;12.50;;;5.53;;
7471;SDS011;3777;48.722;8.110;2024-01-27T14:59:53;6.40;;;3.80;;
7471;SDS011;3777;48.722;8.110;2024-01-27T15:02:20;7.63;;;3.67;;
7471;SDS011;3777;48.722;8.110;2024-01-27T15:04:47;7.33;;;3.33;;
7471;SDS011;3777;48.722;8.110;2024-01-27T15:07:14;8.43;;;4.00;;
7471;SDS011;3777;48.722;8.110;2024-01-27T15:09:42;9.83;;;3.70;;
7471;SDS011;3777;48.722;8.110;2024-01-27T15:12:09;10.30;;;3.33;;